Time;durP1;ratioP1;P1;durP2;ratioP2;P2;SDS_P1;SDS_P2;PMS_P1;PMS_P2;Temp;Humidity;BMP_temperature;BMP_pressure;BME280_temperature;BME280_humidity;BME280_pressure;Samples;Min_cycle;Max_cycle;Signal;HPM_P1;HPM_P2
2022/02/13 00:01:15;;;;;;;0.75;0.75;;;1.40;99.90;;;;;;5032483;28;20037;-76
2022/02/13 00:03:41;;;;;;;0.35;0.35;;;1.40;99.90;;;;;;5031319;28;20033;-70
2022/02/13 00:06:06;;;;;;;0.43;0.43;;;1.40;99.90;;;;;;5032648;28;20478;-70
2022/02/13 00:08:32;;;;;;;0.10;0.10;;;1.30;99.90;;;;;;5032272;28;20033;-70
2022/02/13 00:10:57;;;;;;;0.80;0.43;;;1.30;99.90;;;;;;5031560;28;20026;-70
2022/02/13 00:13:23;;;;;;;0.52;0.52;;;1.30;99.90;;;;;;5031690;28;20036;-76
2022/02/13 00:15:49;;;;;;;1.00;0.75;;;1.30;99.90;;;;;;5032143;28;20029;-70
2022/02/13 00:18:14;;;;;;;0.47;0.45;;;1.40;99.90;;;;;;5032258;28;20041;-70
2022/02/13 00:20:40;;;;;;;0.00;0.00;;;1.40;99.90;;;;;;5032743;28;20026;-76
2022/02/13 00:23:05;;;;;;;0.40;0.40;;;1.50;99.90;;;;;;5032042;28;20029;-76
2022/02/13 00:25:31;;;;;;;0.00;0.00;;;1.60;99.90;;;;;;5032523;28;20029;-76
2022/02/13 00:27:57;;;;;;;2.75;1.73;;;1.70;99.90;;;;;;5030266;28;20044;-70
2022/02/13 00:30:22;;;;;;;2.65;1.85;;;1.70;99.90;;;;;;5021777;28;20026;-77
2022/02/13 00:32:50;;;;;;;0.43;0.43;;;1.70;99.90;;;;;;5018407;28;20034;-76
2022/02/13 00:35:16;;;;;;;0.43;0.43;;;1.80;99.90;;;;;;5016601;28;20014;-70
2022/02/13 00:37:43;;;;;;;1.10;1.05;;;1.70;99.90;;;;;;5030334;28;20392;-72
2022/02/13 00:40:09;;;;;;;0.60;0.60;;;1.70;99.90;;;;;;5035850;28;20025;-78
2022/02/13 00:42:35;;;;;;;1.92;0.80;;;1.60;99.90;;;;;;5035310;28;20039;-78
2022/02/13 00:45:02;;;;;;;0.45;0.43;;;1.60;99.90;;;;;;5035330;28;20536;-72
2022/02/13 00:47:28;;;;;;;0.22;0.22;;;1.50;99.90;;;;;;5035859;28;20013;-72
2022/02/13 00:49:53;;;;;;;0.08;0.08;;;1.50;99.90;;;;;;5035883;28;20032;-78
2022/02/13 00:52:19;;;;;;;3.03;2.50;;;1.50;99.90;;;;;;5035981;28;20017;-72
2022/02/13 00:54:45;;;;;;;0.68;0.65;;;1.50;99.90;;;;;;5035483;28;20029;-72
2022/02/13 00:57:10;;;;;;;0.15;0.15;;;1.50;99.90;;;;;;5034375;28;20143;-72
2022/02/13 00:59:36;;;;;;;0.43;0.43;;;1.60;99.90;;;;;;5035743;28;20022;-70
2022/02/13 01:02:02;;;;;;;1.90;1.10;;;1.60;99.90;;;;;;5035804;28;20021;-76
2022/02/13 01:04:28;;;;;;;0.13;0.13;;;1.60;99.90;;;;;;5035703;28;20025;-76
2022/02/13 01:06:53;;;;;;;4.75;0.82;;;1.60;99.90;;;;;;5035775;28;20146;-76
2022/02/13 01:09:19;;;;;;;0.35;0.35;;;1.60;99.90;;;;;;5035222;28;20017;-76
2022/02/13 01:11:46;;;;;;;0.28;0.28;;;1.60;99.90;;;;;;5034927;28;20404;-76
2022/02/13 01:14:11;;;;;;;0.25;0.25;;;1.60;99.90;;;;;;5035301;28;20032;-70
2022/02/13 01:16:37;;;;;;;0.00;0.00;;;1.60;99.90;;;;;;5035938;28;20034;-76
2022/02/13 01:19:03;;;;;;;0.32;0.32;;;1.50;99.90;;;;;;5042858;28;20065;-69
2022/02/13 01:21:32;;;;;;;7.38;0.52;;;1.50;99.90;;;;;;5039358;28;20087;-70
2022/02/13 01:23:58;;;;;;;0.55;0.52;;;1.40;99.90;;;;;;5035082;28;20032;-70
2022/02/13 01:26:24;;;;;;;1.40;0.50;;;1.50;99.90;;;;;;5035728;28;20034;-76
2022/02/13 01:28:50;;;;;;;0.20;0.20;;;1.50;99.90;;;;;;5034522;28;20405;-76
2022/02/13 01:31:16;;;;;;;0.10;0.10;;;1.60;99.90;;;;;;5035421;28;20481;-76
2022/02/13 01:33:42;;;;;;;0.10;0.10;;;1.60;99.90;;;;;;5035378;28;20026;-76
2022/02/13 01:36:08;;;;;;;0.45;0.45;;;1.60;99.90;;;;;;5035221;28;20056;-70
2022/02/13 01:38:34;;;;;;;0.55;0.55;;;1.60;99.90;;;;;;5034977;28;20071;-77
2022/02/13 01:41:00;;;;;;;0.50;0.50;;;1.60;99.90;;;;;;5034705;28;20053;-76
2022/02/13 01:43:26;;;;;;;12.52;1.25;;;1.60;99.90;;;;;;5033050;28;20044;-70
2022/02/13 01:45:51;;;;;;;0.28;0.28;;;1.60;99.90;;;;;;5034991;28;20054;-77
2022/02/13 01:48:17;;;;;;;0.00;0.00;;;1.50;99.90;;;;;;5034659;28;20030;-76
2022/02/13 01:50:45;;;;;;;1.08;0.68;;;1.50;99.90;;;;;;5033455;28;20033;-76
2022/02/13 01:53:12;;;;;;;0.75;0.75;;;1.50;99.90;;;;;;5034419;28;20104;-76
2022/02/13 01:55:37;;;;;;;0.00;0.00;;;1.50;99.90;;;;;;5034250;28;20032;-69
2022/02/13 01:58:04;;;;;;;1.27;1.05;;;1.50;99.90;;;;;;5034740;28;20034;-70
2022/02/13 02:00:30;;;;;;;0.20;0.20;;;1.40;99.90;;;;;;5034053;28;20029;-70
2022/02/13 02:02:56;;;;;;;1.40;0.80;;;1.40;99.90;;;;;;5034288;28;20026;-70
2022/02/13 02:05:21;;;;;;;0.20;0.20;;;1.40;99.90;;;;;;5034593;28;20100;-70
2022/02/13 02:07:47;;;;;;;1.02;0.52;;;1.40;99.90;;;;;;5015239;28;20144;-70
2022/02/13 02:10:19;;;;;;;0.30;0.30;;;1.40;99.90;;;;;;5014847;28;20022;-76
2022/02/13 02:12:45;;;;;;;0.98;0.30;;;1.30;99.90;;;;;;5014599;28;20436;-77
2022/02/13 02:15:10;;;;;;;0.00;0.00;;;1.30;99.90;;;;;;5014449;28;20026;-76
2022/02/13 02:17:36;;;;;;;0.25;0.25;;;1.20;99.90;;;;;;5014519;28;20108;-75
2022/02/13 02:20:02;;;;;;;1.55;0.95;;;1.20;99.90;;;;;;5014054;28;20030;-76
2022/02/13 02:22:28;;;;;;;0.32;0.32;;;1.10;99.90;;;;;;5014435;28;20022;-70
2022/02/13 02:24:53;;;;;;;0.57;0.30;;;1.10;99.90;;;;;;5013970;28;20080;-70
2022/02/13 02:27:19;;;;;;;0.00;0.00;;;1.10;99.90;;;;;;5014315;28;20037;-70
2022/02/13 02:29:45;;;;;;;0.20;0.20;;;1.00;99.90;;;;;;5014028;28;20129;-76
2022/02/13 02:32:11;;;;;;;0.17;0.17;;;1.00;99.90;;;;;;5014419;28;20532;-76
2022/02/13 02:34:40;;;;;;;1.08;1.02;;;0.90;99.90;;;;;;5014341;28;20053;-75
2022/02/13 02:37:07;;;;;;;0.00;0.00;;;0.90;99.90;;;;;;5023060;28;20095;-76
2022/02/13 02:39:33;;;;;;;0.45;0.45;;;0.90;99.90;;;;;;5033649;28;20036;-76
2022/02/13 02:42:00;;;;;;;0.25;0.25;;;0.90;99.90;;;;;;5033533;28;20416;-70
2022/02/13 02:44:26;;;;;;;0.20;0.20;;;1.00;99.90;;;;;;5033415;28;20029;-76
2022/02/13 02:46:51;;;;;;;0.40;0.40;;;1.00;99.90;;;;;;5033835;28;20396;-76
2022/02/13 02:49:17;;;;;;;2.15;0.73;;;1.10;99.90;;;;;;5032333;28;20025;-70
2022/02/13 02:51:43;;;;;;;0.55;0.55;;;1.20;99.90;;;;;;5033731;28;20037;-76
2022/02/13 02:54:08;;;;;;;2.22;1.15;;;1.30;99.90;;;;;;5033182;28;20030;-70
2022/02/13 02:56:34;;;;;;;0.10;0.10;;;1.50;99.90;;;;;;5033678;28;20030;-70
2022/02/13 02:59:00;;;;;;;0.10;0.10;;;1.50;99.90;;;;;;5033614;28;20067;-70
2022/02/13 03:01:25;;;;;;;4.38;1.27;;;1.50;99.90;;;;;;5033552;28;20029;-76
2022/02/13 03:03:51;;;;;;;0.55;0.55;;;1.50;99.90;;;;;;5033095;28;20096;-70
2022/02/13 03:06:16;;;;;;;0.20;0.20;;;1.60;99.90;;;;;;5032836;28;20396;-70
2022/02/13 03:08:42;;;;;;;0.30;0.30;;;1.60;99.90;;;;;;5033025;28;20077;-76
2022/02/13 03:11:09;;;;;;;0.75;0.75;;;1.70;99.90;;;;;;5033203;28;20032;-76
2022/02/13 03:13:35;;;;;;;0.60;0.55;;;1.80;99.90;;;;;;5043979;28;20049;-76
2022/02/13 03:16:01;;;;;;;1.48;0.60;;;1.80;99.90;;;;;;5033152;28;20057;-77
2022/02/13 03:18:30;;;;;;;2.53;0.95;;;1.90;99.90;;;;;;5032966;28;20035;-70
2022/02/13 03:20:58;;;;;;;2.10;1.17;;;1.90;99.90;;;;;;5033240;28;20520;-76
2022/02/13 03:23:24;;;;;;;0.30;0.22;;;1.80;99.90;;;;;;5031751;28;20576;-70
2022/02/13 03:25:50;;;;;;;0.43;0.43;;;1.90;99.90;;;;;;5033192;28;20178;-76
2022/02/13 03:28:15;;;;;;;0.28;0.28;;;1.90;99.90;;;;;;5033116;28;20497;-76
2022/02/13 03:30:42;;;;;;;0.88;0.88;;;1.90;99.90;;;;;;5033108;28;20029;-70
2022/02/13 03:33:07;;;;;;;0.15;0.15;;;1.90;99.90;;;;;;5031674;28;20397;-70
2022/02/13 03:35:33;;;;;;;0.50;0.50;;;1.90;99.90;;;;;;5032982;28;20041;-70
2022/02/13 03:37:59;;;;;;;0.35;0.35;;;1.90;99.90;;;;;;5032850;28;20040;-76
2022/02/13 03:40:25;;;;;;;0.05;0.05;;;2.00;99.90;;;;;;5032294;28;20100;-70
2022/02/13 03:42:51;;;;;;;0.20;0.20;;;1.90;99.90;;;;;;5032558;28;20077;-71
2022/02/13 03:45:17;;;;;;;0.70;0.70;;;1.90;99.90;;;;;;5013897;28;20473;-70
2022/02/13 03:47:43;;;;;;;0.10;0.10;;;1.90;99.90;;;;;;5019144;28;20021;-76
2022/02/13 03:50:10;;;;;;;0.55;0.55;;;1.90;99.90;;;;;;5031651;28;20026;-70
2022/02/13 03:52:36;;;;;;;2.08;0.30;;;1.90;99.90;;;;;;5035780;28;20018;-70
2022/02/13 03:55:03;;;;;;;0.00;0.00;;;1.90;99.90;;;;;;5032450;28;20554;-76
2022/02/13 03:57:29;;;;;;;15.90;1.48;;;1.90;99.90;;;;;;5032798;28;20025;-70
2022/02/13 03:59:55;;;;;;;1.27;1.17;;;1.90;99.90;;;;;;5032769;28;20071;-70
2022/02/13 04:02:22;;;;;;;0.10;0.10;;;1.90;99.90;;;;;;5032851;28;20105;-76
2022/02/13 04:04:48;;;;;;;4.93;2.00;;;2.00;99.90;;;;;;5032549;28;20031;-70
2022/02/13 04:07:14;;;;;;;4.47;0.55;;;2.00;99.90;;;;;;5031923;28;20101;-71
2022/02/13 04:09:40;;;;;;;0.98;0.90;;;2.00;99.90;;;;;;5032342;28;20026;-76
2022/02/13 04:12:05;;;;;;;0.17;0.17;;;2.00;99.90;;;;;;5031592;28;20026;-70
2022/02/13 04:14:31;;;;;;;3.97;1.17;;;2.10;99.90;;;;;;5031402;28;20105;-77
2022/02/13 04:16:57;;;;;;;0.00;0.00;;;2.20;99.90;;;;;;5032289;28;20017;-77
2022/02/13 04:19:22;;;;;;;0.57;0.57;;;2.30;99.90;;;;;;5032488;28;20022;-70
2022/02/13 04:21:48;;;;;;;1.00;0.90;;;2.30;99.90;;;;;;5032491;28;20034;-77
2022/02/13 04:24:14;;;;;;;0.28;0.28;;;2.30;99.90;;;;;;5032216;28;20029;-70
2022/02/13 04:26:40;;;;;;;0.13;0.13;;;2.30;99.90;;;;;;5033015;28;20029;-77
2022/02/13 04:29:07;;;;;;;3.10;0.68;;;2.30;99.90;;;;;;5032363;28;20025;-70
2022/02/13 04:31:33;;;;;;;0.22;0.22;;;2.20;99.90;;;;;;5030516;28;20064;-71
2022/02/13 04:33:59;;;;;;;2.40;0.77;;;2.20;99.90;;;;;;5032440;28;20038;-70
2022/02/13 04:36:24;;;;;;;0.00;0.00;;;2.20;99.90;;;;;;5032449;28;20143;-77
2022/02/13 04:38:50;;;;;;;0.15;0.15;;;2.20;99.90;;;;;;5032154;28;20034;-70
2022/02/13 04:41:16;;;;;;;0.82;0.82;;;2.10;99.90;;;;;;5030951;28;20448;-77
2022/02/13 04:43:42;;;;;;;0.22;0.22;;;2.20;99.90;;;;;;5026795;28;20030;-71
2022/02/13 04:46:07;;;;;;;0.13;0.13;;;2.20;99.90;;;;;;5012051;28;20515;-77
2022/02/13 04:48:33;;;;;;;1.10;0.93;;;2.20;99.90;;;;;;5025101;28;20481;-76
2022/02/13 04:50:59;;;;;;;1.30;0.55;;;2.20;99.90;;;;;;5031313;28;20022;-77
2022/02/13 04:53:25;;;;;;;8.55;1.23;;;2.30;99.90;;;;;;5031896;28;20087;-70
2022/02/13 04:55:50;;;;;;;0.20;0.20;;;2.30;99.90;;;;;;5032274;28;20036;-78
2022/02/13 04:58:18;;;;;;;0.00;0.00;;;2.30;99.90;;;;;;5034592;28;20044;-78
2022/02/13 05:00:45;;;;;;;0.32;0.32;;;2.30;99.90;;;;;;5031937;28;20082;-78
2022/02/13 05:03:11;;;;;;;0.10;0.10;;;2.40;99.90;;;;;;5031912;28;20378;-78
2022/02/13 05:05:37;;;;;;;0.10;0.10;;;2.30;99.90;;;;;;5032026;28;20074;-78
2022/02/13 05:08:03;;;;;;;0.00;0.00;;;2.30;99.90;;;;;;5031704;28;20034;-70
2022/02/13 05:10:28;;;;;;;0.70;0.70;;;2.30;99.90;;;;;;5031717;28;20097;-71
2022/02/13 05:12:54;;;;;;;0.00;0.00;;;2.30;99.90;;;;;;5031882;28;20554;-70
2022/02/13 05:15:21;;;;;;;0.77;0.70;;;2.30;99.90;;;;;;5031793;28;20491;-71
2022/02/13 05:17:47;;;;;;;0.70;0.68;;;2.30;99.90;;;;;;5031101;28;20026;-70
2022/02/13 05:20:13;;;;;;;1.40;1.33;;;2.30;99.90;;;;;;5035348;28;20488;-70
2022/02/13 05:22:39;;;;;;;0.10;0.10;;;2.40;99.90;;;;;;5035237;28;20114;-78
2022/02/13 05:25:06;;;;;;;0.28;0.28;;;2.30;99.90;;;;;;5034952;28;20392;-71
2022/02/13 05:27:31;;;;;;;0.82;0.63;;;2.30;99.90;;;;;;5035246;28;20079;-71
2022/02/13 05:29:57;;;;;;;0.03;0.03;;;2.30;99.90;;;;;;5035392;28;20489;-70
2022/02/13 05:32:23;;;;;;;0.10;0.10;;;2.30;99.90;;;;;;5035091;28;20060;-70
2022/02/13 05:34:49;;;;;;;1.77;0.73;;;2.20;99.90;;;;;;5035494;28;20025;-78
2022/02/13 05:37:16;;;;;;;0.32;0.32;;;2.30;99.90;;;;;;5035177;28;20048;-79
2022/02/13 05:39:42;;;;;;;0.45;0.45;;;2.20;99.90;;;;;;5035096;28;20395;-70
2022/02/13 05:42:09;;;;;;;0.10;0.10;;;2.30;99.90;;;;;;5035047;28;20132;-78
2022/02/13 05:44:34;;;;;;;0.40;0.40;;;2.30;99.90;;;;;;5022466;28;20026;-70
2022/02/13 05:47:00;;;;;;;0.47;0.47;;;2.30;99.90;;;;;;5014817;28;20080;-70
2022/02/13 05:49:25;;;;;;;0.20;0.20;;;2.30;99.90;;;;;;5034626;28;20499;-70
2022/02/13 05:51:53;;;;;;;0.50;0.50;;;2.40;99.90;;;;;;5034993;28;20369;-78
2022/02/13 05:54:18;;;;;;;2.50;1.05;;;2.40;99.90;;;;;;5034485;28;20025;-70
2022/02/13 05:56:44;;;;;;;4.07;1.50;;;2.40;99.90;;;;;;5034918;28;20142;-78
2022/02/13 05:59:10;;;;;;;3.72;0.80;;;2.40;99.90;;;;;;5033802;28;20451;-77
2022/02/13 06:01:36;;;;;;;0.60;0.60;;;2.40;99.90;;;;;;5034786;28;20056;-70
2022/02/13 06:04:02;;;;;;;0.57;0.57;;;2.40;99.90;;;;;;5034611;28;20050;-70
2022/02/13 06:06:28;;;;;;;1.25;0.70;;;2.40;99.90;;;;;;5033751;28;20538;-70
2022/02/13 06:08:53;;;;;;;3.22;0.63;;;2.50;99.90;;;;;;5034291;28;20025;-70
2022/02/13 06:11:19;;;;;;;0.85;0.43;;;2.40;99.90;;;;;;5034510;28;20025;-78
2022/02/13 06:13:44;;;;;;;2.85;1.45;;;2.40;99.90;;;;;;5034764;28;20033;-78
2022/02/13 06:16:10;;;;;;;0.65;0.65;;;2.40;99.90;;;;;;5034379;28;20036;-70
2022/02/13 06:18:36;;;;;;;0.73;0.73;;;2.40;99.90;;;;;;5034303;28;20027;-70
2022/02/13 06:21:03;;;;;;;0.00;0.00;;;2.40;99.90;;;;;;5034396;28;20029;-70
2022/02/13 06:23:28;;;;;;;16.10;0.80;;;2.40;99.90;;;;;;5034029;28;20503;-76
2022/02/13 06:25:54;;;;;;;0.70;0.40;;;2.50;99.90;;;;;;5034675;28;20116;-76
2022/02/13 06:28:20;;;;;;;0.15;0.15;;;2.50;99.90;;;;;;5033932;28;20100;-70
2022/02/13 06:30:46;;;;;;;1.02;1.00;;;2.50;99.90;;;;;;5033895;28;20029;-77
2022/02/13 06:33:14;;;;;;;0.50;0.50;;;2.50;99.90;;;;;;5034012;28;20025;-70
2022/02/13 06:35:40;;;;;;;0.38;0.38;;;2.50;99.90;;;;;;5033519;28;20030;-70
2022/02/13 06:38:11;;;;;;;0.38;0.38;;;2.50;99.90;;;;;;5033789;28;20451;-70
2022/02/13 06:40:37;;;;;;;6.13;0.55;;;2.60;99.90;;;;;;5033921;28;20041;-70
2022/02/13 06:43:03;;;;;;;1.88;0.98;;;2.70;99.90;;;;;;5033875;28;20396;-76
2022/02/13 06:45:29;;;;;;;1.52;0.85;;;2.70;99.90;;;;;;5014052;28;20101;-77
2022/02/13 06:47:55;;;;;;;0.10;0.10;;;2.70;99.90;;;;;;5020694;28;20033;-77
2022/02/13 06:50:20;;;;;;;0.20;0.20;;;2.70;99.90;;;;;;5033893;28;20018;-70
2022/02/13 06:52:46;;;;;;;0.65;0.43;;;2.70;99.90;;;;;;5033527;28;20381;-77
2022/02/13 06:55:12;;;;;;;0.70;0.70;;;2.80;99.90;;;;;;5033531;28;20068;-70
2022/02/13 06:57:49;;;;;;;0.10;0.10;;;2.80;99.90;;;;;;5033704;28;20029;-70
2022/02/13 07:00:16;;;;;;;0.28;0.28;;;2.80;99.90;;;;;;5033794;28;20562;-70
2022/02/13 07:02:43;;;;;;;0.15;0.15;;;2.80;99.90;;;;;;5033307;28;20112;-76
2022/02/13 07:05:10;;;;;;;0.30;0.30;;;2.80;99.90;;;;;;5033494;28;20021;-70
2022/02/13 07:07:38;;;;;;;0.13;0.13;;;2.80;99.90;;;;;;5033186;28;20034;-70
2022/02/13 07:10:10;;;;;;;0.30;0.30;;;2.80;99.90;;;;;;5032850;28;20036;-70
2022/02/13 07:12:36;;;;;;;0.20;0.20;;;2.80;99.90;;;;;;5032710;28;20043;-77
2022/02/13 07:15:03;;;;;;;0.45;0.45;;;2.90;99.90;;;;;;5033323;28;20025;-70
2022/02/13 07:17:28;;;;;;;0.80;0.63;;;2.80;99.90;;;;;;5033135;28;20079;-70
2022/02/13 07:19:54;;;;;;;0.32;0.32;;;2.90;99.90;;;;;;5033002;28;20471;-77
2022/02/13 07:22:21;;;;;;;0.40;0.40;;;2.90;99.90;;;;;;5033302;28;20504;-70
2022/02/13 07:24:47;;;;;;;0.20;0.20;;;2.90;99.90;;;;;;5032619;28;20028;-76
2022/02/13 07:27:13;;;;;;;0.08;0.08;;;3.00;99.90;;;;;;5033227;28;20030;-77
2022/02/13 07:29:38;;;;;;;10.15;1.02;;;3.00;99.90;;;;;;5033034;28;20021;-76
2022/02/13 07:32:05;;;;;;;1.38;1.27;;;3.00;99.90;;;;;;5032884;28;20528;-77
2022/02/13 07:34:31;;;;;;;0.52;0.52;;;3.00;99.90;;;;;;5033149;28;20032;-70
2022/02/13 07:37:01;;;;;;;0.20;0.20;;;3.00;99.90;;;;;;5033097;28;20087;-70
2022/02/13 07:39:35;;;;;;;0.45;0.45;;;3.00;99.90;;;;;;5031294;28;20121;-70
2022/02/13 07:42:01;;;;;;;1.45;1.20;;;3.00;99.90;;;;;;5032218;28;20136;-77
2022/02/13 07:44:27;;;;;;;0.70;0.70;;;3.00;99.90;;;;;;5027292;28;20458;-70
2022/02/13 07:46:54;;;;;;;0.65;0.65;;;3.00;99.90;;;;;;5018846;28;20091;-77
2022/02/13 07:49:20;;;;;;;0.73;0.68;;;3.00;99.90;;;;;;5031853;28;20036;-70
2022/02/13 07:51:46;;;;;;;0.25;0.25;;;3.10;99.90;;;;;;5032867;28;20030;-70
2022/02/13 07:54:12;;;;;;;0.25;0.25;;;3.20;99.90;;;;;;5032369;28;20025;-70
2022/02/13 07:56:37;;;;;;;1.75;1.55;;;3.40;99.90;;;;;;5032856;28;20025;-70
2022/02/13 07:59:03;;;;;;;0.43;0.43;;;3.50;99.90;;;;;;5032616;28;20437;-71
2022/02/13 08:01:29;;;;;;;0.40;0.40;;;3.60;99.90;;;;;;5031275;28;20492;-80
2022/02/13 08:03:55;;;;;;;0.52;0.52;;;3.70;99.90;;;;;;5032521;28;20029;-70
2022/02/13 08:06:20;;;;;;;0.20;0.20;;;3.80;99.90;;;;;;5032851;28;20108;-77
2022/02/13 08:08:48;;;;;;;5.75;1.48;;;4.00;99.90;;;;;;5032115;28;20021;-76
2022/02/13 08:11:16;;;;;;;0.25;0.25;;;4.10;99.90;;;;;;5032410;28;20024;-77
2022/02/13 08:13:42;;;;;;;4.38;0.45;;;4.30;99.90;;;;;;5032101;28;20030;-73
2022/02/13 08:16:08;;;;;;;0.10;0.10;;;4.30;99.90;;;;;;5032275;28;20024;-70
2022/02/13 08:18:33;;;;;;;3.30;2.17;;;4.40;99.90;;;;;;5032167;28;20064;-70
2022/02/13 08:21:03;;;;;;;0.43;0.43;;;4.60;99.90;;;;;;5031828;28;20030;-77
2022/02/13 08:23:28;;;;;;;0.52;0.52;;;4.70;99.90;;;;;;5032242;28;20025;-77
2022/02/13 08:25:54;;;;;;;0.32;0.32;;;5.00;99.90;;;;;;5032934;28;20083;-70
2022/02/13 08:28:20;;;;;;;0.20;0.20;;;5.40;99.90;;;;;;5031926;28;20477;-70
2022/02/13 08:30:46;;;;;;;0.40;0.40;;;5.70;99.90;;;;;;5032220;28;20029;-70
2022/02/13 08:33:13;;;;;;;0.20;0.20;;;5.60;99.90;;;;;;5032150;28;20500;-70
2022/02/13 08:35:38;;;;;;;2.30;2.08;;;5.50;99.90;;;;;;5032978;28;20127;-70
2022/02/13 08:38:05;;;;;;;0.17;0.17;;;5.50;99.90;;;;;;5032130;28;20076;-77
2022/02/13 08:40:32;;;;;;;1.02;1.02;;;5.40;99.90;;;;;;5032180;28;20042;-70
2022/02/13 08:43:04;;;;;;;0.32;0.32;;;5.40;99.90;;;;;;5032107;28;20160;-70
2022/02/13 08:45:31;;;;;;;0.38;0.38;;;5.40;99.90;;;;;;5012688;28;20025;-71
2022/02/13 08:47:57;;;;;;;1.08;1.05;;;5.50;99.90;;;;;;5022191;28;20032;-75
2022/02/13 08:50:23;;;;;;;1.50;0.80;;;5.70;99.90;;;;;;5032796;28;20120;-70
2022/02/13 08:52:50;;;;;;;0.43;0.43;;;5.80;99.90;;;;;;5034065;28;20039;-77
2022/02/13 08:55:16;;;;;;;0.10;0.10;;;5.90;99.90;;;;;;5035127;28;20033;-70
2022/02/13 08:57:43;;;;;;;0.75;0.75;;;6.10;99.90;;;;;;5036086;28;20104;-70
2022/02/13 09:00:11;;;;;;;0.60;0.60;;;6.30;99.90;;;;;;5035798;28;20374;-71
2022/02/13 09:02:37;;;;;;;0.30;0.30;;;6.50;99.90;;;;;;5035752;28;20112;-70
2022/02/13 09:05:07;;;;;;;1.45;0.63;;;6.70;99.90;;;;;;5035743;28;20025;-70
2022/02/13 09:07:42;;;;;;;5.68;0.88;;;6.80;99.90;;;;;;5035463;28;20044;-76
2022/02/13 09:10:10;;;;;;;0.40;0.40;;;7.10;99.90;;;;;;5035670;28;20021;-79
2022/02/13 09:12:35;;;;;;;2.70;1.77;;;7.30;99.90;;;;;;5035422;28;20060;-71
2022/02/13 09:15:01;;;;;;;0.35;0.35;;;7.50;99.90;;;;;;5035874;28;20060;-76
2022/02/13 09:17:27;;;;;;;1.85;1.25;;;7.60;99.90;;;;;;5035316;28;20034;-71
2022/02/13 09:19:53;;;;;;;0.55;0.55;;;7.70;99.90;;;;;;5033952;28;20424;-71
2022/02/13 09:22:19;;;;;;;0.10;0.10;;;7.80;99.90;;;;;;5035851;28;20037;-71
2022/02/13 09:24:44;;;;;;;1.55;1.00;;;8.00;99.90;;;;;;5035308;28;20095;-71
2022/02/13 09:27:10;;;;;;;1.25;1.10;;;8.10;99.90;;;;;;5035366;28;20392;-78
2022/02/13 09:29:36;;;;;;;0.10;0.10;;;8.30;99.90;;;;;;5034525;28;20061;-78
2022/02/13 09:32:03;;;;;;;1.48;0.77;;;8.20;99.90;;;;;;5035207;28;20053;-71
2022/02/13 09:34:33;;;;;;;0.00;0.00;;;8.40;99.90;;;;;;5035257;28;20026;-70
2022/02/13 09:36:59;;;;;;;0.30;0.30;;;8.50;99.90;;;;;;5035630;28;20370;-70
2022/02/13 09:39:25;;;;;;;3.85;0.47;;;8.50;99.90;;;;;;5034901;28;20049;-76
2022/02/13 09:41:52;;;;;;;0.30;0.30;;;8.70;99.90;;;;;;5035204;28;20385;-78
2022/02/13 09:44:18;;;;;;;0.10;0.10;;;8.90;99.90;;;;;;5034891;28;20025;-71
2022/02/13 09:46:44;;;;;;;0.35;0.30;;;8.90;99.90;;;;;;5035227;28;20144;-70
2022/02/13 09:49:10;;;;;;;3.28;1.05;;;9.00;99.90;;;;;;5039414;28;20037;-78
2022/02/13 09:51:36;;;;;;;0.20;0.20;;;9.20;99.90;;;;;;5033739;28;20030;-77
2022/02/13 09:54:03;;;;;;;0.22;0.20;;;9.70;99.90;;;;;;5033598;28;20030;-76
2022/02/13 09:56:29;;;;;;;0.10;0.10;;;10.50;99.90;;;;;;5035099;28;20079;-78
2022/02/13 09:58:55;;;;;;;0.82;0.82;;;10.50;99.90;;;;;;5034918;28;20480;-77
2022/02/13 10:01:38;;;;;;;0.90;0.57;;;10.30;99.90;;;;;;5035041;28;20026;-71
2022/02/13 10:04:09;;;;;;;0.00;0.00;;;10.30;99.90;;;;;;5033445;28;20017;-70
2022/02/13 10:06:36;;;;;;;0.43;0.28;;;10.40;99.90;;;;;;5034872;28;20105;-71
2022/02/13 10:09:03;;;;;;;4.65;2.63;;;10.60;99.90;;;;;;5034468;28;20499;-71
2022/02/13 10:11:34;;;;;;;0.00;0.00;;;10.60;99.90;;;;;;5032833;28;20021;-77
2022/02/13 10:14:01;;;;;;;0.25;0.25;;;10.50;99.90;;;;;;5034386;28;20378;-70
2022/02/13 10:16:49;;;;;;;0.08;0.08;;;10.40;99.90;;;;;;5034307;28;20029;-70
2022/02/13 10:19:26;;;;;;;1.42;1.25;;;10.30;99.90;;;;;;5034271;28;20035;-76
2022/02/13 10:21:54;;;;;;;1.27;0.82;;;10.30;99.90;;;;;;5033357;28;20026;-77
2022/02/13 10:24:32;;;;;;;2.90;1.95;;;10.60;99.90;;;;;;5034183;28;20089;-70
2022/02/13 10:27:05;;;;;;;0.00;0.00;;;10.50;99.90;;;;;;5035496;28;20075;-70
2022/02/13 10:29:53;;;;;;;0.00;0.00;;;10.50;99.90;;;;;;5034333;28;20083;-70
2022/02/13 10:32:27;;;;;;;0.30;0.20;;;10.40;99.90;;;;;;5033758;28;20117;-70
2022/02/13 10:35:08;;;;;;;20.52;1.88;;;10.50;99.90;;;;;;5033171;28;20036;-71
2022/02/13 10:37:46;;;;;;;2.22;0.80;;;10.60;99.90;;;;;;5033437;28;20025;-78
2022/02/13 10:40:19;;;;;;;0.30;0.30;;;10.60;99.90;;;;;;5033182;28;20378;-70
2022/02/13 10:42:48;;;;;;;0.22;0.22;;;10.60;99.90;;;;;;5034063;28;20575;-75
2022/02/13 10:45:28;;;;;;;4.50;2.58;;;10.90;99.90;;;;;;5033621;28;20045;-76
2022/02/13 10:47:58;;;;;;;2.75;0.73;;;11.10;99.90;;;;;;5033850;28;20017;-71
2022/02/13 10:50:25;;;;;;;1.00;0.32;;;11.40;99.90;;;;;;5033603;28;20456;-76
2022/02/13 10:52:58;;;;;;;0.90;0.43;;;11.60;99.90;;;;;;5033658;28;20032;-70
2022/02/13 10:55:25;;;;;;;0.40;0.40;;;11.60;99.90;;;;;;5033644;28;20033;-71
2022/02/13 10:57:51;;;;;;;1.35;0.63;;;11.70;99.90;;;;;;5035052;28;20030;-77
2022/02/13 11:00:18;;;;;;;1.30;0.45;;;11.60;99.90;;;;;;5041588;28;20394;-75
2022/02/13 11:02:49;;;;;;;0.10;0.10;;;11.60;99.90;;;;;;5033470;28;20033;-77
2022/02/13 11:05:16;;;;;;;5.47;0.88;;;11.60;99.90;;;;;;5033692;28;20498;-75
2022/02/13 11:07:45;;;;;;;0.10;0.10;;;11.60;99.90;;;;;;5032931;28;20120;-76
2022/02/13 11:10:24;;;;;;;1.05;0.95;;;11.80;99.90;;;;;;5033496;28;20519;-71
2022/02/13 11:12:53;;;;;;;0.73;0.73;;;12.00;99.90;;;;;;5033360;28;20075;-71
2022/02/13 11:15:21;;;;;;;0.55;0.55;;;12.00;99.90;;;;;;5032560;28;20032;-76
2022/02/13 11:17:49;;;;;;;0.00;0.00;;;12.10;99.90;;;;;;5033352;28;20025;-71
2022/02/13 11:20:16;;;;;;;0.17;0.17;;;12.30;99.90;;;;;;5031732;28;20083;-76
2022/02/13 11:22:43;;;;;;;0.10;0.10;;;12.50;99.90;;;;;;5033013;28;20061;-78
2022/02/13 11:25:10;;;;;;;0.22;0.22;;;12.40;99.90;;;;;;5033284;28;20400;-70
2022/02/13 11:27:57;;;;;;;2.65;0.63;;;12.50;99.90;;;;;;5037260;28;20092;-76
2022/02/13 11:30:45;;;;;;;0.47;0.20;;;12.70;99.90;;;;;;5033166;28;20052;-71
2022/02/13 11:33:23;;;;;;;4.75;1.50;;;12.80;99.90;;;;;;5033082;28;20036;-76
2022/02/13 11:35:52;;;;;;;0.22;0.22;;;12.70;99.90;;;;;;5033117;28;20034;-70
2022/02/13 11:38:39;;;;;;;0.52;0.50;;;12.70;99.90;;;;;;5032950;28;20029;-76
2022/02/13 11:41:06;;;;;;;0.20;0.20;;;12.80;99.90;;;;;;5032980;28;20547;-75
2022/02/13 11:43:59;;;;;;;3.10;0.43;;;12.90;99.90;;;;;;5033040;28;20036;-70
2022/02/13 11:46:26;;;;;;;0.15;0.15;;;12.90;99.90;;;;;;5012858;28;20529;-77
2022/02/13 11:48:59;;;;;;;0.52;0.50;;;12.90;99.90;;;;;;5027173;28;20048;-70
2022/02/13 11:51:46;;;;;;;0.63;0.47;;;12.90;99.90;;;;;;5033144;28;20444;-77
2022/02/13 11:54:49;;;;;;;1.40;1.10;;;12.90;99.90;;;;;;5041182;28;20455;-77
2022/02/13 11:57:19;;;;;;;5.28;1.23;;;12.90;99.90;;;;;;5031531;28;20048;-71
2022/02/13 12:00:00;;;;;;;0.20;0.20;;;12.80;99.90;;;;;;5032610;28;20014;-71
2022/02/13 12:02:31;;;;;;;2.40;0.93;;;13.00;99.90;;;;;;5032565;28;20083;-74
2022/02/13 12:05:06;;;;;;;0.65;0.35;;;13.10;99.90;;;;;;5032576;28;20029;-75
2022/02/13 12:07:43;;;;;;;1.90;0.70;;;13.10;99.90;;;;;;5032364;28;20030;-76
2022/02/13 12:10:18;;;;;;;0.55;0.55;;;13.30;99.90;;;;;;5032748;28;20040;-70
2022/02/13 12:12:44;;;;;;;0.45;0.40;;;13.20;99.90;;;;;;5031494;28;20029;-70
2022/02/13 12:15:12;;;;;;;1.20;0.30;;;13.10;99.90;;;;;;5031519;28;20029;-77
2022/02/13 12:17:38;;;;;;;3.05;0.88;;;13.20;99.90;;;;;;5031903;28;20029;-74
2022/02/13 12:20:13;;;;;;;0.32;0.32;;;13.10;99.90;;;;;;5033126;28;20033;-71
2022/02/13 12:22:40;;;;;;;0.40;0.40;;;13.30;99.90;;;;;;5032256;28;20160;-75
2022/02/13 12:25:08;;;;;;;1.23;0.25;;;13.30;99.90;;;;;;5031436;28;20072;-78
2022/02/13 12:27:35;;;;;;;0.22;0.22;;;13.20;99.90;;;;;;5034251;28;20481;-74
2022/02/13 12:30:04;;;;;;;3.40;1.60;;;13.20;99.90;;;;;;5036571;28;20101;-75
2022/02/13 12:32:31;;;;;;;1.10;1.00;;;13.20;99.90;;;;;;5036119;28;20025;-75
2022/02/13 12:34:58;;;;;;;1.02;0.70;;;13.30;99.90;;;;;;5035563;28;20022;-70
2022/02/13 12:37:47;;;;;;;0.40;0.40;;;13.30;99.90;;;;;;5036221;28;20028;-76
2022/02/13 12:40:19;;;;;;;9.60;0.43;;;13.30;99.90;;;;;;5036256;28;20025;-74
2022/02/13 12:42:47;;;;;;;1.45;1.10;;;13.40;99.90;;;;;;5036335;28;20123;-77
2022/02/13 12:45:18;;;;;;;0.00;0.00;;;13.30;99.90;;;;;;5036130;28;20486;-75
2022/02/13 12:47:46;;;;;;;1.35;0.90;;;13.30;99.90;;;;;;5035974;28;20017;-70
2022/02/13 12:50:16;;;;;;;6.38;1.98;;;13.30;99.90;;;;;;5040597;28;20527;-70
2022/02/13 12:52:42;;;;;;;4.47;0.82;;;13.40;99.90;;;;;;5035944;28;20057;-77
2022/02/13 12:55:16;;;;;;;3.60;2.40;;;13.50;99.90;;;;;;5035854;28;20030;-77
2022/02/13 12:57:45;;;;;;;2.38;1.65;;;13.60;99.90;;;;;;5036255;28;20547;-74